createdAt,value
2023-02-17T00:00:56.749Z,100.00
2023-02-17T00:03:25.971Z,100.00
2023-02-17T00:05:53.667Z,100.00
2023-02-17T00:08:21.499Z,100.00
2023-02-17T00:10:56.704Z,100.00
2023-02-17T00:13:24.411Z,100.00
2023-02-17T00:15:52.208Z,100.00
2023-02-17T00:18:19.896Z,100.00
2023-02-17T00:20:48.802Z,100.00
2023-02-17T00:23:16.668Z,100.00
2023-02-17T00:25:44.289Z,100.00
2023-02-17T00:28:11.994Z,100.00
2023-02-17T00:30:39.994Z,100.00
2023-02-17T00:33:07.652Z,100.00
2023-02-17T00:35:35.316Z,100.00
2023-02-17T00:38:04.236Z,100.00
2023-02-17T00:40:31.804Z,100.00
2023-02-17T00:42:59.773Z,100.00
2023-02-17T00:45:27.341Z,100.00
2023-02-17T00:47:55.024Z,100.00
2023-02-17T00:50:22.637Z,100.00
2023-02-17T00:52:51.979Z,100.00
2023-02-17T00:55:20.955Z,100.00
2023-02-17T00:57:48.616Z,100.00
2023-02-17T01:00:17.509Z,100.00
2023-02-17T01:02:47.359Z,100.00
2023-02-17T01:05:14.985Z,100.00
2023-02-17T01:07:42.646Z,100.00
2023-02-17T01:10:10.934Z,100.00
2023-02-17T01:12:40.363Z,100.00
2023-02-17T01:15:08.787Z,100.00
2023-02-17T01:17:36.383Z,100.00
2023-02-17T01:20:04.308Z,100.00
2023-02-17T01:22:34.567Z,100.00
2023-02-17T01:25:02.232Z,100.00
2023-02-17T01:27:30.084Z,100.00
2023-02-17T01:29:59.093Z,100.00
2023-02-17T01:32:26.705Z,100.00
2023-02-17T01:34:54.268Z,100.00
2023-02-17T01:37:21.967Z,100.00
2023-02-17T01:39:49.930Z,100.00
2023-02-17T01:42:20.002Z,100.00
2023-02-17T01:45:28.885Z,100.00
2023-02-17T01:48:00.686Z,100.00
2023-02-17T01:50:33.152Z,100.00
2023-02-17T01:53:03.137Z,100.00
2023-02-17T01:55:32.855Z,100.00
2023-02-17T01:58:04.244Z,100.00
2023-02-17T02:00:35.104Z,100.00
2023-02-17T02:03:05.206Z,100.00
2023-02-17T02:05:34.139Z,100.00
2023-02-17T02:08:02.908Z,100.00
2023-02-17T02:10:30.565Z,100.00
2023-02-17T02:12:58.139Z,100.00
2023-02-17T02:15:32.096Z,100.00
2023-02-17T02:18:28.209Z,100.00
2023-02-17T02:21:29.928Z,100.00
2023-02-17T02:24:09.476Z,100.00
2023-02-17T02:26:50.793Z,100.00
2023-02-17T02:29:42.143Z,100.00
2023-02-17T02:32:33.420Z,100.00
2023-02-17T02:35:08.752Z,100.00
2023-02-17T02:37:43.553Z,100.00
2023-02-17T02:40:13.012Z,100.00
2023-02-17T02:42:41.529Z,100.00
2023-02-17T02:45:11.319Z,100.00
2023-02-17T02:47:49.002Z,100.00
2023-02-17T02:50:20.969Z,100.00
2023-02-17T02:53:00.691Z,100.00
2023-02-17T02:55:40.177Z,100.00
2023-02-17T02:58:16.415Z,100.00
2023-02-17T03:00:54.562Z,100.00
2023-02-17T03:03:34.790Z,100.00
2023-02-17T03:06:10.124Z,100.00
2023-02-17T03:08:41.592Z,100.00
2023-02-17T03:11:09.317Z,100.00
2023-02-17T03:13:39.481Z,100.00
2023-02-17T03:16:08.659Z,100.00
2023-02-17T03:18:37.699Z,100.00
2023-02-17T03:21:15.753Z,100.00
2023-02-17T03:23:43.437Z,100.00
2023-02-17T03:26:11.178Z,100.00
2023-02-17T03:28:38.787Z,100.00
2023-02-17T03:31:06.421Z,100.00
2023-02-17T03:33:34.045Z,100.00
2023-02-17T03:36:03.016Z,100.00
2023-02-17T03:38:31.976Z,100.00
2023-02-17T03:40:59.585Z,100.00
2023-02-17T03:43:27.296Z,100.00
2023-02-17T03:45:54.986Z,100.00
2023-02-17T03:48:23.394Z,100.00
2023-02-17T03:50:51.030Z,100.00
2023-02-17T03:53:20.046Z,100.00
2023-02-17T03:55:47.771Z,100.00
2023-02-17T03:58:15.385Z,100.00
2023-02-17T04:00:42.994Z,100.00
2023-02-17T04:03:10.683Z,100.00
2023-02-17T04:05:38.355Z,100.00
2023-02-17T04:08:06.404Z,100.00
2023-02-17T04:10:35.358Z,100.00
2023-02-17T04:13:03.130Z,100.00
2023-02-17T04:15:30.782Z,100.00
2023-02-17T04:17:58.459Z,100.00
2023-02-17T04:20:26.160Z,100.00
2023-02-17T04:22:54.911Z,100.00
2023-02-17T04:25:23.349Z,100.00
2023-02-17T04:27:52.619Z,100.00
2023-02-17T04:30:20.527Z,100.00
2023-02-17T04:32:48.201Z,100.00
2023-02-17T04:35:15.958Z,100.00
2023-02-17T04:37:43.642Z,100.00
2023-02-17T04:40:12.350Z,100.00
2023-02-17T04:42:40.246Z,100.00
2023-02-17T04:45:10.056Z,100.00
2023-02-17T04:47:37.891Z,100.00
2023-02-17T04:50:10.073Z,100.00
2023-02-17T04:52:38.711Z,100.00
2023-02-17T04:55:07.990Z,100.00
2023-02-17T04:57:35.817Z,100.00
2023-02-17T05:00:05.094Z,100.00
2023-02-17T05:02:34.113Z,100.00
2023-02-17T05:05:01.770Z,100.00
2023-02-17T05:07:29.401Z,100.00
2023-02-17T05:09:57.029Z,100.00
2023-02-17T05:12:24.676Z,100.00
2023-02-17T05:14:52.328Z,100.00
2023-02-17T05:17:19.908Z,100.00
2023-02-17T05:19:48.860Z,100.00
2023-02-17T05:22:16.528Z,100.00
2023-02-17T05:24:44.257Z,100.00
2023-02-17T05:27:11.815Z,100.00
2023-02-17T05:29:39.452Z,100.00
2023-02-17T05:32:07.143Z,100.00
2023-02-17T05:34:34.968Z,100.00
2023-02-17T05:37:04.320Z,100.00
2023-02-17T05:39:32.022Z,100.00
2023-02-17T05:41:59.731Z,100.00
2023-02-17T05:44:27.433Z,100.00
2023-02-17T05:46:55.364Z,100.00
2023-02-17T05:49:23.031Z,100.00
2023-02-17T05:51:50.723Z,100.00
2023-02-17T05:54:19.744Z,100.00
2023-02-17T05:56:47.603Z,100.00
2023-02-17T05:59:15.213Z,100.00
2023-02-17T06:01:42.833Z,100.00
2023-02-17T06:04:10.679Z,100.00
2023-02-17T06:06:38.329Z,100.00
2023-02-17T06:09:05.938Z,100.00
2023-02-17T06:11:35.022Z,100.00
2023-02-17T06:14:02.784Z,100.00
2023-02-17T06:16:30.715Z,100.00
2023-02-17T06:19:01.037Z,100.00
2023-02-17T06:21:29.091Z,100.00
2023-02-17T06:23:56.718Z,100.00
2023-02-17T06:26:24.672Z,100.00
2023-02-17T06:28:53.689Z,100.00
2023-02-17T06:31:21.674Z,100.00
2023-02-17T06:33:49.371Z,100.00
2023-02-17T06:36:18.209Z,100.00
2023-02-17T06:38:45.956Z,100.00
2023-02-17T06:41:13.568Z,100.00
2023-02-17T06:43:41.258Z,100.00
2023-02-17T06:46:10.536Z,100.00
2023-02-17T06:48:38.527Z,100.00
2023-02-17T06:51:06.609Z,100.00
2023-02-17T06:53:34.254Z,100.00
2023-02-17T06:56:02.042Z,100.00
2023-02-17T06:58:29.760Z,100.00
2023-02-17T07:00:57.727Z,100.00
2023-02-17T07:03:26.733Z,100.00
2023-02-17T07:05:58.414Z,100.00
2023-02-17T07:08:26.186Z,100.00
2023-02-17T07:10:53.980Z,100.00
2023-02-17T07:13:21.772Z,100.00
2023-02-17T07:15:49.658Z,100.00
2023-02-17T07:18:17.362Z,100.00
2023-02-17T07:20:47.458Z,100.00
2023-02-17T07:23:15.123Z,100.00
2023-02-17T07:25:46.613Z,100.00
2023-02-17T07:28:14.586Z,100.00
2023-02-17T07:30:44.101Z,100.00
2023-02-17T07:33:16.473Z,100.00
2023-02-17T07:35:45.926Z,100.00
2023-02-17T07:38:13.896Z,100.00
2023-02-17T07:40:41.813Z,100.00
2023-02-17T07:43:09.484Z,100.00
2023-02-17T07:45:37.744Z,100.00
2023-02-17T07:48:06.022Z,100.00
2023-02-17T07:50:34.717Z,100.00
2023-02-17T07:53:03.746Z,100.00
2023-02-17T07:55:31.613Z,100.00
2023-02-17T07:57:59.833Z,100.00
2023-02-17T08:00:28.897Z,100.00
2023-02-17T08:02:56.463Z,100.00
2023-02-17T08:05:24.206Z,100.00
2023-02-17T08:08:14.516Z,100.00
2023-02-17T08:11:01.938Z,100.00
2023-02-17T08:13:29.649Z,100.00
2023-02-17T08:15:57.392Z,100.00
2023-02-17T08:18:25.317Z,100.00
2023-02-17T08:20:53.076Z,100.00
2023-02-17T08:23:21.453Z,100.00
2023-02-17T08:25:50.532Z,100.00
2023-02-17T08:28:18.250Z,100.00
2023-02-17T08:30:46.582Z,100.00
2023-02-17T08:33:17.848Z,100.00
2023-02-17T08:35:45.553Z,100.00
2023-02-17T08:38:13.352Z,100.00
2023-02-17T08:40:41.120Z,100.00
2023-02-17T08:43:10.452Z,100.00
2023-02-17T08:45:38.633Z,100.00
2023-02-17T08:48:06.802Z,100.00
2023-02-17T08:50:35.214Z,100.00
2023-02-17T08:53:07.644Z,100.00
2023-02-17T08:55:48.573Z,100.00
2023-02-17T08:58:18.722Z,100.00
2023-02-17T09:00:46.580Z,100.00
2023-02-17T09:03:17.437Z,100.00
2023-02-17T09:05:45.178Z,100.00
2023-02-17T09:08:12.984Z,100.00
2023-02-17T09:10:41.894Z,100.00
2023-02-17T09:13:09.623Z,100.00
2023-02-17T09:15:39.907Z,100.00
2023-02-17T09:18:07.773Z,100.00
2023-02-17T09:20:35.393Z,100.00
2023-02-17T09:23:03.071Z,100.00
2023-02-17T09:25:30.855Z,100.00
2023-02-17T09:27:59.973Z,100.00
2023-02-17T09:30:27.922Z,100.00
2023-02-17T09:32:57.370Z,100.00
2023-02-17T09:35:25.286Z,100.00
2023-02-17T09:37:53.095Z,100.00
2023-02-17T09:40:23.976Z,100.00
2023-02-17T09:42:51.749Z,100.00
2023-02-17T09:45:23.150Z,100.00
2023-02-17T09:47:54.188Z,100.00
2023-02-17T09:50:29.831Z,100.00
2023-02-17T09:53:03.511Z,100.00
2023-02-17T09:55:35.614Z,100.00
2023-02-17T09:58:08.213Z,100.00
2023-02-17T10:00:41.412Z,100.00
2023-02-17T10:03:17.746Z,100.00
2023-02-17T10:05:53.137Z,100.00
2023-02-17T10:08:27.497Z,100.00
2023-02-17T10:11:01.799Z,100.00
2023-02-17T10:13:33.256Z,100.00
2023-02-17T10:16:05.861Z,100.00
2023-02-17T10:18:38.838Z,100.00
2023-02-17T10:21:13.112Z,100.00
2023-02-17T10:23:41.178Z,100.00
2023-02-17T10:26:20.878Z,100.00
2023-02-17T10:28:52.938Z,100.00
2023-02-17T10:31:44.798Z,100.00
2023-02-17T10:34:24.889Z,100.00
2023-02-17T10:37:00.029Z,100.00
2023-02-17T10:39:37.433Z,100.00
2023-02-17T10:42:06.611Z,100.00
2023-02-17T10:44:38.483Z,100.00
2023-02-17T10:47:06.581Z,100.00
2023-02-17T10:49:38.773Z,100.00
2023-02-17T10:52:15.407Z,100.00
2023-02-17T10:54:47.716Z,100.00
2023-02-17T10:57:18.134Z,100.00
2023-02-17T10:59:49.023Z,100.00
2023-02-17T11:02:20.934Z,100.00
2023-02-17T11:04:50.820Z,100.00
2023-02-17T11:07:23.603Z,100.00
2023-02-17T11:09:54.582Z,100.00
2023-02-17T11:12:26.008Z,100.00
2023-02-17T11:14:55.933Z,100.00
2023-02-17T11:17:29.218Z,100.00
2023-02-17T11:19:59.527Z,100.00
2023-02-17T11:22:35.205Z,100.00
2023-02-17T11:25:06.550Z,100.00
2023-02-17T11:27:34.219Z,100.00
2023-02-17T11:30:10.960Z,100.00
2023-02-17T11:32:39.340Z,100.00
2023-02-17T11:35:23.446Z,100.00
2023-02-17T11:37:52.677Z,100.00
2023-02-17T11:40:26.880Z,100.00
2023-02-17T11:42:59.408Z,100.00
2023-02-17T11:45:31.179Z,100.00
2023-02-17T11:48:15.881Z,100.00
2023-02-17T11:50:50.696Z,100.00
2023-02-17T11:53:27.085Z,100.00
2023-02-17T11:56:10.681Z,100.00
2023-02-17T11:58:52.792Z,100.00
2023-02-17T12:01:36.756Z,100.00
2023-02-17T12:04:22.467Z,100.00
2023-02-17T12:07:07.062Z,100.00
2023-02-17T12:09:48.337Z,100.00
2023-02-17T12:12:25.500Z,100.00
2023-02-17T12:15:09.078Z,100.00
2023-02-17T12:17:47.592Z,100.00
2023-02-17T12:20:35.974Z,100.00
2023-02-17T12:23:26.137Z,100.00
2023-02-17T12:25:59.993Z,100.00
2023-02-17T12:29:04.048Z,100.00
2023-02-17T12:32:06.499Z,100.00
2023-02-17T12:34:38.440Z,100.00
2023-02-17T12:37:07.382Z,100.00
2023-02-17T12:39:41.216Z,100.00
2023-02-17T12:42:14.487Z,100.00
2023-02-17T12:44:46.943Z,100.00
2023-02-17T12:47:18.945Z,100.00
2023-02-17T12:49:51.529Z,100.00
2023-02-17T12:52:23.624Z,100.00
2023-02-17T12:54:57.177Z,100.00
2023-02-17T12:57:34.043Z,100.00
2023-02-17T13:00:05.211Z,100.00
2023-02-17T13:02:33.210Z,100.00
2023-02-17T13:05:05.099Z,100.00
2023-02-17T13:07:45.347Z,100.00
2023-02-17T13:10:28.133Z,100.00
2023-02-17T13:13:00.535Z,100.00
2023-02-17T13:15:31.627Z,100.00
2023-02-17T13:18:03.065Z,100.00
2023-02-17T13:20:53.839Z,100.00
2023-02-17T13:23:38.433Z,100.00
2023-02-17T13:26:28.405Z,100.00
2023-02-17T13:29:20.458Z,100.00
2023-02-17T13:31:51.552Z,100.00
2023-02-17T13:34:28.594Z,100.00
2023-02-17T13:36:56.581Z,100.00
2023-02-17T13:39:40.147Z,100.00
2023-02-17T13:42:33.342Z,100.00
2023-02-17T13:45:03.061Z,100.00
2023-02-17T13:47:37.904Z,100.00
2023-02-17T13:50:07.172Z,100.00
2023-02-17T13:52:34.830Z,100.00
2023-02-17T13:55:04.807Z,100.00
2023-02-17T13:57:34.645Z,100.00
2023-02-17T14:00:25.626Z,100.00
2023-02-17T14:02:56.268Z,100.00
2023-02-17T14:05:28.311Z,100.00
2023-02-17T14:08:00.425Z,100.00
2023-02-17T14:10:28.912Z,100.00
2023-02-17T14:12:57.424Z,100.00
2023-02-17T14:15:29.751Z,100.00
2023-02-17T14:18:00.160Z,100.00
2023-02-17T14:20:34.095Z,100.00
2023-02-17T14:23:05.159Z,100.00
2023-02-17T14:25:35.341Z,100.00
2023-02-17T14:28:05.415Z,100.00
2023-02-17T14:30:36.521Z,100.00
2023-02-17T14:33:18.480Z,100.00
2023-02-17T14:35:51.161Z,100.00
2023-02-17T14:38:31.885Z,100.00
2023-02-17T14:41:01.076Z,100.00
2023-02-17T14:43:29.443Z,100.00
2023-02-17T14:45:58.460Z,100.00
2023-02-17T14:48:27.914Z,100.00
2023-02-17T14:50:58.143Z,100.00
2023-02-17T14:53:27.858Z,100.00
2023-02-17T14:56:01.891Z,100.00
2023-02-17T14:58:31.474Z,100.00
2023-02-17T15:01:01.236Z,100.00
2023-02-17T15:03:29.266Z,100.00
2023-02-17T15:05:57.161Z,100.00
2023-02-17T15:08:31.628Z,100.00
2023-02-17T15:10:59.803Z,100.00
2023-02-17T15:13:27.561Z,100.00
2023-02-17T15:15:57.016Z,100.00
2023-02-17T15:18:27.955Z,100.00
2023-02-17T15:20:55.868Z,100.00
2023-02-17T15:23:25.486Z,100.00
2023-02-17T15:25:54.956Z,100.00
2023-02-17T15:28:23.548Z,100.00
2023-02-17T15:30:54.255Z,100.00
2023-02-17T15:33:24.707Z,100.00
2023-02-17T15:35:57.158Z,100.00
2023-02-17T15:38:27.136Z,100.00
2023-02-17T15:40:58.410Z,100.00
2023-02-17T15:46:13.670Z,100.00
2023-02-17T15:48:41.567Z,100.00
2023-02-17T15:51:14.944Z,100.00
2023-02-17T15:53:43.004Z,100.00
2023-02-17T15:56:15.555Z,100.00
2023-02-17T15:58:43.314Z,100.00
2023-02-17T16:01:18.622Z,100.00
2023-02-17T16:03:48.881Z,100.00
2023-02-17T16:06:20.502Z,100.00
2023-02-17T16:08:48.416Z,100.00
2023-02-17T16:11:17.300Z,100.00
2023-02-17T16:13:46.828Z,100.00
2023-02-17T16:16:19.111Z,100.00
2023-02-17T16:18:47.744Z,100.00
2023-02-17T16:21:16.233Z,100.00
2023-02-17T16:23:45.639Z,100.00
2023-02-17T16:26:16.695Z,100.00
2023-02-17T16:28:45.592Z,100.00
2023-02-17T16:31:13.568Z,100.00
2023-02-17T16:33:42.637Z,100.00
2023-02-17T16:36:15.676Z,100.00
2023-02-17T16:38:44.874Z,100.00
2023-02-17T16:41:14.998Z,100.00
2023-02-17T16:43:43.452Z,100.00
2023-02-17T16:46:29.679Z,100.00
2023-02-17T16:48:58.165Z,100.00
2023-02-17T16:51:26.048Z,100.00
2023-02-17T16:53:55.163Z,100.00
2023-02-17T16:56:28.586Z,100.00
2023-02-17T16:58:56.613Z,100.00
2023-02-17T17:01:24.461Z,100.00
2023-02-17T17:03:52.231Z,100.00
2023-02-17T17:06:23.358Z,100.00
2023-02-17T17:08:51.528Z,100.00
2023-02-17T17:11:23.598Z,100.00
2023-02-17T17:13:51.558Z,100.00
2023-02-17T17:16:22.031Z,100.00
2023-02-17T17:18:50.035Z,100.00
2023-02-17T17:21:19.241Z,100.00
2023-02-17T17:23:47.345Z,100.00
2023-02-17T17:26:24.005Z,100.00
2023-02-17T17:28:51.917Z,100.00
2023-02-17T17:31:21.101Z,100.00
2023-02-17T17:33:49.719Z,100.00
2023-02-17T17:36:24.284Z,100.00
2023-02-17T17:38:53.105Z,100.00
2023-02-17T17:41:23.319Z,100.00
2023-02-17T17:43:51.664Z,100.00
2023-02-17T17:46:22.451Z,100.00
2023-02-17T17:48:50.164Z,100.00
2023-02-17T17:51:20.438Z,100.00
2023-02-17T17:53:48.516Z,100.00
2023-02-17T17:56:19.576Z,100.00
2023-02-17T17:58:48.701Z,100.00
2023-02-17T18:01:17.152Z,100.00
2023-02-17T18:03:44.905Z,100.00
2023-02-17T18:06:17.082Z,100.00
2023-02-17T18:08:46.808Z,100.00
2023-02-17T18:11:15.479Z,100.00
2023-02-17T18:13:44.436Z,100.00
2023-02-17T18:16:13.754Z,100.00
2023-02-17T18:18:41.891Z,100.00
2023-02-17T18:21:09.543Z,100.00
2023-02-17T18:23:37.273Z,100.00
2023-02-17T18:26:05.366Z,100.00
2023-02-17T18:28:34.982Z,100.00
2023-02-17T18:31:07.566Z,100.00
2023-02-17T18:33:36.988Z,100.00
2023-02-17T18:36:08.446Z,100.00
2023-02-17T18:38:36.440Z,100.00
2023-02-17T18:41:04.782Z,100.00
2023-02-17T18:43:33.012Z,100.00
2023-02-17T18:46:01.660Z,100.00
2023-02-17T18:48:30.078Z,100.00
2023-02-17T18:50:59.020Z,100.00
2023-02-17T18:53:27.201Z,100.00
2023-02-17T18:55:54.880Z,100.00
2023-02-17T18:58:22.583Z,100.00
2023-02-17T19:00:50.194Z,100.00
2023-02-17T19:03:17.861Z,100.00
2023-02-17T19:05:45.564Z,100.00
2023-02-17T19:08:14.476Z,100.00
2023-02-17T19:10:42.119Z,100.00
2023-02-17T19:13:09.717Z,100.00
2023-02-17T19:15:37.874Z,100.00
2023-02-17T19:18:06.181Z,100.00
2023-02-17T19:20:33.951Z,100.00
2023-02-17T19:23:02.502Z,100.00
2023-02-17T19:25:31.453Z,100.00
2023-02-17T19:27:59.050Z,99.10
2023-02-17T19:30:26.747Z,98.10
2023-02-17T19:32:54.345Z,98.28
2023-02-17T19:35:22.023Z,98.13
2023-02-17T19:37:49.627Z,100.00
2023-02-17T19:40:17.589Z,98.52
2023-02-17T19:42:46.678Z,100.00
2023-02-17T19:45:14.381Z,100.00
2023-02-17T19:47:43.441Z,99.68
2023-02-17T19:50:12.253Z,100.00
2023-02-17T19:52:39.837Z,100.00
2023-02-17T19:55:09.640Z,98.74
2023-02-17T19:57:37.380Z,97.89
2023-02-17T20:00:09.641Z,96.82
2023-02-17T20:02:37.570Z,97.76
2023-02-17T20:05:05.888Z,96.07
2023-02-17T20:07:33.590Z,96.32
2023-02-17T20:10:01.314Z,95.95
2023-02-17T20:12:28.967Z,97.05
2023-02-17T20:15:00.026Z,98.07
2023-02-17T20:17:32.910Z,98.80
2023-02-17T20:20:00.798Z,97.56
2023-02-17T20:22:28.472Z,97.64
2023-02-17T20:24:56.425Z,96.06
2023-02-17T20:27:24.973Z,98.93
2023-02-17T20:29:52.755Z,98.34
2023-02-17T20:32:20.619Z,99.18
2023-02-17T20:34:52.304Z,98.82
2023-02-17T20:37:21.381Z,99.73
2023-02-17T20:39:49.603Z,100.00
2023-02-17T20:42:17.235Z,99.21
2023-02-17T20:44:45.817Z,100.00
2023-02-17T20:47:13.546Z,100.00
2023-02-17T20:49:41.211Z,100.00
2023-02-17T20:52:10.260Z,100.00
2023-02-17T20:54:39.101Z,100.00
2023-02-17T20:57:14.360Z,100.00
2023-02-17T20:59:42.020Z,99.82
2023-02-17T21:02:11.521Z,99.45
2023-02-17T21:04:40.285Z,98.94
2023-02-17T21:07:08.008Z,100.00
2023-02-17T21:09:37.167Z,98.51
2023-02-17T21:12:05.873Z,99.32
2023-02-17T21:14:33.797Z,98.57
2023-02-17T21:17:02.205Z,98.30
2023-02-17T21:19:30.362Z,98.20
2023-02-17T21:21:58.075Z,96.26
2023-02-17T21:24:25.787Z,97.58
2023-02-17T21:26:54.895Z,98.38
2023-02-17T21:29:22.560Z,96.42
2023-02-17T21:31:50.301Z,95.04
2023-02-17T21:34:18.073Z,95.29
2023-02-17T21:36:45.919Z,95.71
2023-02-17T21:39:13.756Z,95.85
2023-02-17T21:41:45.535Z,95.57
2023-02-17T21:44:37.803Z,94.50
2023-02-17T21:47:09.082Z,95.38
2023-02-17T21:49:38.242Z,96.35
2023-02-17T21:52:07.758Z,97.22
2023-02-17T21:54:35.451Z,99.83
2023-02-17T21:57:04.438Z,97.80
2023-02-17T21:59:33.617Z,97.72
2023-02-17T22:02:01.729Z,98.76
2023-02-17T22:04:29.926Z,98.99
2023-02-17T22:06:57.656Z,98.98
2023-02-17T22:09:27.395Z,97.45
2023-02-17T22:11:55.546Z,98.49
2023-02-17T22:14:23.150Z,97.17
2023-02-17T22:16:54.679Z,96.44
2023-02-17T22:19:24.655Z,98.77
2023-02-17T22:21:52.884Z,96.85
2023-02-17T22:24:21.659Z,95.92
2023-02-17T22:26:49.963Z,96.31
2023-02-17T22:29:17.625Z,94.02
2023-02-17T22:31:46.686Z,95.51
2023-02-17T22:34:15.926Z,96.12
2023-02-17T22:36:43.582Z,95.57
2023-02-17T22:39:11.258Z,95.10
2023-02-17T22:41:40.736Z,95.26
2023-02-17T22:44:09.209Z,95.46
2023-02-17T22:46:37.081Z,93.89
2023-02-17T22:49:04.762Z,94.00
2023-02-17T22:51:37.170Z,92.66
2023-02-17T22:54:06.495Z,92.54
2023-02-17T22:56:34.648Z,93.06
2023-02-17T22:59:04.238Z,93.17
2023-02-17T23:01:33.835Z,94.15
2023-02-17T23:04:06.860Z,93.33
2023-02-17T23:06:37.869Z,94.17
2023-02-17T23:09:08.751Z,93.47
2023-02-17T23:11:54.762Z,94.85
2023-02-17T23:14:25.884Z,93.86
2023-02-17T23:16:55.727Z,93.66
2023-02-17T23:19:24.517Z,94.42
2023-02-17T23:21:55.793Z,93.72
2023-02-17T23:24:26.208Z,92.83
2023-02-17T23:26:58.363Z,93.20
2023-02-17T23:29:26.874Z,92.79
2023-02-17T23:31:54.717Z,93.53
2023-02-17T23:34:22.378Z,93.36
2023-02-17T23:36:50.143Z,94.23
2023-02-17T23:39:19.151Z,94.40
2023-02-17T23:41:46.828Z,93.81
2023-02-17T23:44:17.838Z,94.31
2023-02-17T23:46:46.786Z,93.73
2023-02-17T23:49:16.082Z,94.01
2023-02-17T23:51:44.168Z,94.26
2023-02-17T23:54:11.816Z,94.32
2023-02-17T23:56:41.195Z,93.99
2023-02-17T23:59:09.235Z,95.07
